Time;durP1;ratioP1;P1;durP2;ratioP2;P2;SDS_P1;SDS_P2;PMS_P1;PMS_P2;Temp;Humidity;BMP_temperature;BMP_pressure;BME280_temperature;BME280_humidity;BME280_pressure;Samples;Min_cycle;Max_cycle;Signal;HPM_P1;HPM_P2
2024/01/21 00:01:02;;;;;;;37.27;15.47;;;;;;;-2.44;66.67;101950.88;4911808;29;20482;-73
2024/01/21 00:03:31;;;;;;;41.27;15.73;;;;;;;-2.46;66.92;101952.66;4913183;29;20471;-73
2024/01/21 00:05:59;;;;;;;41.43;16.20;;;;;;;-2.45;66.63;101949.16;4914931;29;20467;-74
2024/01/21 00:08:27;;;;;;;44.80;16.10;;;;;;;-2.46;66.75;101942.28;4915426;29;20470;-72
2024/01/21 00:10:55;;;;;;;37.47;14.93;;;;;;;-2.47;66.92;101944.00;4916302;29;21114;-73
2024/01/21 00:13:23;;;;;;;44.10;16.20;;;;;;;-2.48;66.73;101931.03;4914219;29;20589;-72
2024/01/21 00:15:51;;;;;;;43.97;15.33;;;;;;;-2.48;66.92;101934.50;4910412;29;20925;-73
2024/01/21 00:18:19;;;;;;;45.93;16.23;;;;;;;-2.50;67.23;101925.00;4912361;29;20472;-73
2024/01/21 00:20:49;;;;;;;39.60;14.67;;;;;;;-2.50;67.33;101925.88;4911600;29;20463;-74
2024/01/21 00:23:17;;;;;;;45.07;17.33;;;;;;;-2.50;67.48;101914.63;4917187;29;20529;-74
2024/01/21 00:25:45;;;;;;;48.30;15.20;;;;;;;-2.48;67.60;101918.06;4912758;29;21020;-73
2024/01/21 00:28:13;;;;;;;50.60;16.77;;;;;;;-2.49;67.81;101916.34;4910096;29;20498;-74
2024/01/21 00:30:41;;;;;;;41.70;15.07;;;;;;;-2.51;68.06;101918.09;4912516;29;20490;-74
2024/01/21 00:33:09;;;;;;;45.30;15.83;;;;;;;-2.53;68.32;101904.28;4911827;29;20507;-74
2024/01/21 00:35:37;;;;;;;48.60;16.43;;;;;;;-2.53;68.52;101905.13;4911880;29;20553;-73
2024/01/21 00:38:06;;;;;;;43.50;15.77;;;;;;;-2.55;68.69;101912.09;4912031;29;20969;-73
2024/01/21 00:40:34;;;;;;;53.80;17.83;;;;;;;-2.55;68.78;101906.91;4912437;29;20458;-74
2024/01/21 00:43:04;;;;;;;42.17;14.63;;;;;;;-2.54;68.85;101913.81;4912875;29;20899;-74
2024/01/21 00:45:32;;;;;;;43.33;15.33;;;;;;;-2.52;69.00;101903.41;4911332;29;20523;-74
2024/01/21 00:48:00;;;;;;;42.83;16.67;;;;;;;-2.53;68.93;101906.88;4911296;29;20466;-73
2024/01/21 00:50:28;;;;;;;38.43;14.97;;;;;;;-2.55;68.85;101898.28;4912650;29;20577;-73
2024/01/21 00:52:56;;;;;;;44.70;16.37;;;;;;;-2.54;69.06;101897.38;4910592;29;20497;-73
2024/01/21 00:55:25;;;;;;;50.83;17.87;;;;;;;-2.55;69.17;101893.09;4909215;29;20478;-73
2024/01/21 00:57:53;;;;;;;45.93;16.07;;;;;;;-2.56;69.26;101887.03;4911369;29;20902;-74
2024/01/21 01:00:25;;;;;;;38.20;15.27;;;;;;;-2.58;69.29;101886.22;4911855;29;20542;-74
2024/01/21 01:02:53;;;;;;;46.20;17.07;;;;;;;-2.56;69.26;101893.97;4913353;29;20452;-74
2024/01/21 01:05:21;;;;;;;45.57;15.60;;;;;;;-2.59;69.63;101902.66;4911559;29;20465;-74
2024/01/21 01:07:49;;;;;;;45.90;16.30;;;;;;;-2.61;69.75;101898.38;4912207;29;20473;-73
2024/01/21 01:10:17;;;;;;;50.37;17.33;;;;;;;-2.62;69.67;101904.47;4911643;29;20476;-72
2024/01/21 01:12:46;;;;;;;49.73;17.03;;;;;;;-2.66;69.74;101909.72;4916254;29;20470;-73
2024/01/21 01:15:14;;;;;;;47.90;17.40;;;;;;;-2.64;69.36;101921.84;4914071;29;20464;-71
2024/01/21 01:17:44;;;;;;;45.10;15.87;;;;;;;-2.63;69.48;101920.94;4914069;29;20492;-73
2024/01/21 01:20:12;;;;;;;46.47;16.30;;;;;;;-2.62;69.32;101922.63;4913505;29;20467;-73
2024/01/21 01:22:40;;;;;;;43.63;16.67;;;;;;;-2.62;69.14;101933.03;4913172;29;21063;-74
2024/01/21 01:25:08;;;;;;;54.43;16.93;;;;;;;-2.63;69.28;101926.13;4911149;29;20576;-73
2024/01/21 01:27:36;;;;;;;42.93;17.00;;;;;;;-2.66;69.13;101930.50;4911310;29;20541;-72
2024/01/21 01:30:07;;;;;;;41.00;15.70;;;;;;;-2.67;68.88;101938.31;4914411;29;20486;-72
2024/01/21 01:32:35;;;;;;;45.77;14.97;;;;;;;-2.67;68.97;101934.00;4909688;29;20493;-73
2024/01/21 01:35:05;;;;;;;39.60;13.93;;;;;;;-2.71;68.55;101927.13;4911997;29;20528;-72
2024/01/21 01:37:32;;;;;;;40.80;14.77;;;;;;;-2.75;68.12;101935.00;4913700;29;20855;-73
2024/01/21 01:40:00;;;;;;;34.37;13.67;;;;;;;-2.77;68.15;101927.25;4913312;29;20555;-73
2024/01/21 01:42:28;;;;;;;42.00;15.57;;;;;;;-2.80;68.61;101922.09;4914610;29;20467;-73
2024/01/21 01:44:56;;;;;;;47.67;17.83;;;;;;;-2.85;68.86;101900.56;4911612;29;20929;-74
2024/01/21 01:47:25;;;;;;;40.33;14.87;;;;;;;-2.82;68.93;101892.75;4915766;29;20561;-72
2024/01/21 01:49:55;;;;;;;45.57;15.60;;;;;;;-2.81;68.97;101902.22;4913136;29;20485;-73
2024/01/21 01:52:23;;;;;;;46.20;16.37;;;;;;;-2.81;69.22;101898.75;4913562;29;20528;-74
2024/01/21 01:54:51;;;;;;;45.33;15.33;;;;;;;-2.83;69.70;101897.97;4911980;29;20516;-73
2024/01/21 01:57:21;;;;;;;46.87;17.03;;;;;;;-2.85;69.81;101903.16;4912949;29;20594;-73
2024/01/21 01:59:49;;;;;;;43.53;16.20;;;;;;;-2.88;69.89;101892.84;4911600;29;20549;-73
2024/01/21 02:02:17;;;;;;;42.03;16.33;;;;;;;-2.87;70.36;101904.94;4911764;29;20505;-73
2024/01/21 02:04:46;;;;;;;44.50;15.00;;;;;;;-2.87;70.59;101909.28;4910618;29;20862;-73
2024/01/21 02:07:14;;;;;;;39.10;14.33;;;;;;;-2.86;70.56;101913.56;4909121;29;20497;-73
2024/01/21 02:09:42;;;;;;;53.47;17.23;;;;;;;-2.85;70.72;101902.31;4913865;29;20585;-74
2024/01/21 02:12:10;;;;;;;47.10;15.53;;;;;;;-2.88;71.12;101898.03;4914405;29;20545;-74
2024/01/21 02:14:37;;;;;;;43.80;15.93;;;;;;;-2.88;71.03;101891.97;4914605;29;20501;-73
2024/01/21 02:17:05;;;;;;;47.90;16.77;;;;;;;-2.87;71.01;101886.75;4917603;29;20500;-74
2024/01/21 02:19:33;;;;;;;42.53;15.47;;;;;;;-2.86;71.11;101891.06;4914437;29;21133;-74
2024/01/21 02:22:02;;;;;;;47.60;16.37;;;;;;;-2.85;70.83;101891.94;4915738;29;20465;-74
2024/01/21 02:24:33;;;;;;;46.07;16.77;;;;;;;-2.87;70.31;101884.16;4912938;29;20555;-74
2024/01/21 02:27:01;;;;;;;48.50;16.53;;;;;;;-2.89;70.23;101879.88;4913498;29;20972;-74
2024/01/21 02:29:29;;;;;;;49.10;16.43;;;;;;;-2.90;70.06;101873.00;4915228;29;20554;-74
2024/01/21 02:31:58;;;;;;;45.77;15.37;;;;;;;-2.85;70.05;101871.16;4915173;29;21078;-72
2024/01/21 02:34:25;;;;;;;44.63;15.43;;;;;;;-2.84;69.78;101871.13;4915130;29;21022;-74
2024/01/21 02:36:53;;;;;;;45.97;15.27;;;;;;;-2.84;69.70;101868.53;4913743;29;20466;-74
2024/01/21 02:39:21;;;;;;;51.60;16.90;;;;;;;-2.82;69.59;101866.78;4916290;29;20580;-72
2024/01/21 02:41:50;;;;;;;46.93;16.10;;;;;;;-2.73;69.54;101858.78;4912877;29;20464;-73
2024/01/21 02:44:18;;;;;;;47.00;15.97;;;;;;;-2.69;69.18;101857.84;4915236;29;20492;-73
2024/01/21 02:46:46;;;;;;;42.33;16.90;;;;;;;-2.73;68.96;101851.00;4913072;29;20573;-73
2024/01/21 02:49:16;;;;;;;47.80;15.70;;;;;;;-2.76;69.16;101851.06;4914811;29;21268;-73
2024/01/21 02:51:44;;;;;;;52.63;17.57;;;;;;;-2.77;69.39;101851.94;4913811;29;20443;-73
2024/01/21 02:54:12;;;;;;;42.97;15.33;;;;;;;-2.79;69.05;101852.84;4913504;29;20493;-73
2024/01/21 02:56:40;;;;;;;50.40;16.23;;;;;;;-2.81;68.89;101852.88;4915601;29;20464;-74
2024/01/21 02:59:09;;;;;;;35.43;14.27;;;;;;;-2.85;68.98;101846.06;4914201;29;20570;-73
2024/01/21 03:01:37;;;;;;;45.60;16.33;;;;;;;-2.88;68.95;101859.09;4914767;29;20934;-73
2024/01/21 03:04:05;;;;;;;51.73;16.07;;;;;;;-2.92;69.17;101844.47;4911441;29;20536;-73
2024/01/21 03:06:33;;;;;;;46.10;16.83;;;;;;;-2.91;68.66;101846.19;4912425;29;20473;-73
2024/01/21 03:09:01;;;;;;;44.33;14.23;;;;;;;-2.92;68.38;101847.06;4914289;29;20468;-73
2024/01/21 03:11:28;;;;;;;42.50;15.60;;;;;;;-2.96;68.53;101845.41;4912171;29;20880;-73
2024/01/21 03:13:56;;;;;;;44.23;16.53;;;;;;;-2.95;68.17;101839.31;4911694;29;20468;-73
2024/01/21 03:16:25;;;;;;;42.70;15.70;;;;;;;-2.95;68.16;101849.72;4911876;29;20512;-73
2024/01/21 03:18:53;;;;;;;49.80;16.23;;;;;;;-2.99;68.35;101835.06;4910652;29;21046;-73
2024/01/21 03:21:22;;;;;;;45.93;16.57;;;;;;;-2.94;68.58;101843.63;4912429;29;20467;-73
2024/01/21 03:23:50;;;;;;;47.03;15.83;;;;;;;-2.91;68.46;101835.81;4911726;29;20484;-74
2024/01/21 03:26:17;;;;;;;51.37;16.77;;;;;;;-2.90;68.54;101828.88;4912772;29;20543;-74
2024/01/21 03:28:45;;;;;;;52.87;16.37;;;;;;;-2.92;68.85;101826.31;4911174;29;20461;-73
2024/01/21 03:31:13;;;;;;;50.80;17.40;;;;;;;-2.86;68.97;101826.16;4910195;29;20560;-73
2024/01/21 03:33:42;;;;;;;55.53;19.50;;;;;;;-3.03;69.11;101813.53;4915941;29;20572;-73
2024/01/21 03:36:11;;;;;;;54.30;18.57;;;;;;;-3.07;69.94;101813.59;4911947;29;20861;-73
2024/01/21 03:38:39;;;;;;;65.53;19.90;;;;;;;-3.09;70.09;101811.06;4912616;29;20457;-73
2024/01/21 03:41:07;;;;;;;66.37;20.90;;;;;;;-3.27;70.65;101800.16;4914578;29;20931;-73
2024/01/21 03:43:35;;;;;;;68.07;22.37;;;;;;;-3.32;71.19;101796.78;4913586;29;20484;-73
2024/01/21 03:46:03;;;;;;;60.97;21.10;;;;;;;-3.18;71.36;101797.41;4914089;29;20568;-73
2024/01/21 03:48:31;;;;;;;75.43;20.70;;;;;;;-2.98;71.11;101795.25;4913577;29;20492;-73
2024/01/21 03:51:00;;;;;;;64.57;20.43;;;;;;;-2.90;70.56;101795.94;4909217;29;20476;-73
2024/01/21 03:53:28;;;;;;;63.97;22.07;;;;;;;-2.85;69.98;101795.88;4912956;29;20456;-73
2024/01/21 03:55:56;;;;;;;69.40;21.10;;;;;;;-3.06;70.38;101789.34;4912066;29;20576;-72
2024/01/21 03:58:23;;;;;;;69.03;21.40;;;;;;;-3.06;70.74;101797.16;4910689;29;20564;-73
2024/01/21 04:00:51;;;;;;;62.40;20.47;;;;;;;-3.03;70.54;101797.09;4912934;29;20552;-72
2024/01/21 04:03:19;;;;;;;65.80;20.50;;;;;;;-2.84;70.51;101801.03;4912714;29;20462;-73
2024/01/21 04:05:47;;;;;;;75.57;20.93;;;;;;;-2.81;70.46;101800.97;4909832;29;20487;-73
2024/01/21 04:08:17;;;;;;;58.33;19.83;;;;;;;-2.76;70.77;101808.66;4912943;29;20497;-74
2024/01/21 04:10:44;;;;;;;57.90;19.40;;;;;;;-2.82;70.48;101808.81;4915698;29;20886;-74
2024/01/21 04:13:12;;;;;;;57.67;19.07;;;;;;;-2.78;70.86;101821.69;4917251;29;21021;-74
2024/01/21 04:15:40;;;;;;;60.00;19.97;;;;;;;-2.75;70.69;101826.81;4915687;29;20529;-73
2024/01/21 04:18:08;;;;;;;62.60;19.50;;;;;;;-2.72;70.92;101826.75;4913451;29;20613;-74
2024/01/21 04:20:36;;;;;;;56.53;19.67;;;;;;;-2.75;70.76;101832.00;4909173;29;20470;-74
2024/01/21 04:23:04;;;;;;;52.97;18.97;;;;;;;-2.82;71.12;101830.44;4910286;29;20560;-74
2024/01/21 04:25:33;;;;;;;59.77;18.77;;;;;;;-2.92;71.26;101828.91;4908589;29;21018;-73
2024/01/21 04:28:00;;;;;;;55.27;17.93;;;;;;;-2.84;71.22;101831.34;4910280;29;21288;-74
2024/01/21 04:30:29;;;;;;;58.53;20.10;;;;;;;-2.75;71.01;101834.63;4910944;29;20495;-73
2024/01/21 04:32:57;;;;;;;56.53;20.37;;;;;;;-2.66;70.74;101837.03;4909735;29;20555;-73
2024/01/21 04:35:25;;;;;;;57.97;19.10;;;;;;;-2.66;70.50;101833.56;4910053;29;20502;-74
2024/01/21 04:37:53;;;;;;;61.57;20.53;;;;;;;-2.70;70.18;101829.31;4909190;29;20548;-74
2024/01/21 04:40:21;;;;;;;63.13;19.33;;;;;;;-2.69;70.33;101821.50;4907829;29;20956;-73
2024/01/21 04:42:50;;;;;;;58.77;18.23;;;;;;;-2.66;70.20;101816.25;4911615;29;20450;-74
2024/01/21 04:45:19;;;;;;;58.50;18.90;;;;;;;-2.75;69.60;101826.81;4897117;29;21188;-73
2024/01/21 04:47:47;;;;;;;52.70;17.63;;;;;;;-2.83;70.14;101828.72;4909448;29;20467;-73
2024/01/21 04:50:15;;;;;;;54.37;17.37;;;;;;;-2.83;70.14;101827.84;4909144;29;21057;-73
2024/01/21 04:52:42;;;;;;;60.33;18.00;;;;;;;-2.81;70.07;101821.72;4908491;29;21526;-73
2024/01/21 04:55:11;;;;;;;59.43;18.20;;;;;;;-2.81;69.36;101807.88;4909244;29;20588;-73
2024/01/21 04:57:39;;;;;;;45.57;17.70;;;;;;;-2.81;69.14;101789.72;4912481;29;20500;-73
2024/01/21 05:00:10;;;;;;;57.20;18.63;;;;;;;-2.95;69.13;101803.00;4909558;29;21124;-72
2024/01/21 05:02:38;;;;;;;55.07;17.87;;;;;;;-3.08;69.52;101806.72;4907974;29;20981;-74
2024/01/21 05:05:07;;;;;;;57.80;18.10;;;;;;;-3.14;69.80;101805.06;4910035;29;20472;-74
2024/01/21 05:07:34;;;;;;;64.77;21.87;;;;;;;-3.06;69.84;101823.09;4911790;29;21026;-72
2024/01/21 05:10:02;;;;;;;54.57;19.00;;;;;;;-3.07;69.92;101830.03;4911804;29;20497;-73
2024/01/21 05:12:30;;;;;;;53.23;18.23;;;;;;;-3.14;70.19;101830.16;4911781;29;20919;-73
2024/01/21 05:14:58;;;;;;;61.27;19.40;;;;;;;-3.22;70.33;101834.66;4908357;29;20468;-73
2024/01/21 05:17:27;;;;;;;55.47;18.37;;;;;;;-3.31;70.50;101829.63;4907021;29;20959;-73
2024/01/21 05:19:55;;;;;;;56.53;19.90;;;;;;;-3.30;70.79;101820.97;4911834;29;20549;-73
2024/01/21 05:22:23;;;;;;;54.30;18.10;;;;;;;-3.23;69.97;101826.00;4909692;29;20552;-73
2024/01/21 05:24:51;;;;;;;60.87;19.60;;;;;;;-3.32;70.07;101835.69;4911707;29;20641;-74
2024/01/21 05:27:18;;;;;;;53.73;17.60;;;;;;;-3.29;70.09;101820.94;4907379;29;20497;-74
2024/01/21 05:29:46;;;;;;;58.33;18.93;;;;;;;-3.26;69.78;101827.81;4909501;29;20461;-74
2024/01/21 05:32:14;;;;;;;55.33;19.20;;;;;;;-3.29;69.57;101807.09;4911187;29;20869;-73
2024/01/21 05:34:43;;;;;;;58.30;18.63;;;;;;;-3.33;69.74;101801.09;4908602;29;20465;-73
2024/01/21 05:37:11;;;;;;;55.97;19.50;;;;;;;-3.27;69.67;101802.75;4909935;29;21019;-74
2024/01/21 05:39:39;;;;;;;51.77;18.37;;;;;;;-3.13;69.40;101803.34;4909499;29;20462;-74
2024/01/21 05:42:08;;;;;;;62.00;19.60;;;;;;;-3.06;68.82;101799.75;4908997;29;20461;-74
2024/01/21 05:44:36;;;;;;;61.73;19.83;;;;;;;-3.08;68.47;101791.97;4913213;29;20961;-73
2024/01/21 05:47:04;;;;;;;51.83;17.60;;;;;;;-3.15;68.78;101789.53;4917207;29;20476;-73
2024/01/21 05:49:33;;;;;;;52.27;18.80;;;;;;;-3.17;68.96;101788.72;4915029;29;20465;-73
2024/01/21 05:52:02;;;;;;;54.10;17.53;;;;;;;-3.14;68.87;101792.09;4913933;29;20459;-73
2024/01/21 05:54:30;;;;;;;46.17;16.00;;;;;;;-3.26;68.93;101791.50;4912476;29;20512;-72
2024/01/21 05:56:58;;;;;;;49.60;18.30;;;;;;;-3.29;69.52;101791.53;4911090;29;20496;-73
2024/01/21 05:59:26;;;;;;;51.43;17.93;;;;;;;-3.35;69.55;101789.06;4916644;29;20477;-72
2024/01/21 06:01:54;;;;;;;51.20;16.87;;;;;;;-3.61;70.26;101774.84;4913004;29;20463;-73
2024/01/21 06:04:22;;;;;;;50.40;18.07;;;;;;;-3.69;71.41;101787.06;4914207;29;20452;-73
2024/01/21 06:06:50;;;;;;;44.53;16.20;;;;;;;-3.67;72.01;101787.88;4913389;29;20524;-73
2024/01/21 06:09:19;;;;;;;47.40;16.40;;;;;;;-3.59;71.89;101779.97;4912828;29;20461;-73
2024/01/21 06:11:47;;;;;;;52.73;19.00;;;;;;;-3.66;71.83;101783.56;4914220;29;21360;-73
2024/01/21 06:14:14;;;;;;;56.00;17.67;;;;;;;-3.57;72.27;101781.66;4915113;29;21144;-73
2024/01/21 06:16:42;;;;;;;49.67;18.23;;;;;;;-3.50;72.19;101772.88;4914608;29;20528;-73
2024/01/21 06:19:10;;;;;;;54.83;18.50;;;;;;;-3.53;72.23;101775.56;4914552;29;20668;-73
2024/01/21 06:21:42;;;;;;;47.87;17.33;;;;;;;-3.40;71.95;101763.19;4912211;29;20520;-73
2024/01/21 06:24:10;;;;;;;49.47;16.77;;;;;;;-3.41;71.62;101767.53;4910587;29;20492;-73
2024/01/21 06:26:40;;;;;;;49.10;17.97;;;;;;;-3.43;71.84;101769.28;4916539;29;22184;-74
2024/01/21 06:29:08;;;;;;;53.93;19.17;;;;;;;-3.42;72.13;101772.75;4912765;29;20469;-73
2024/01/21 06:31:36;;;;;;;43.67;17.70;;;;;;;-3.35;72.32;101776.97;4915812;29;20821;-74
2024/01/21 06:34:04;;;;;;;58.67;19.00;;;;;;;-3.23;71.89;101788.81;4911829;29;20559;-75
2024/01/21 06:36:32;;;;;;;56.33;18.83;;;;;;;-3.16;71.79;101793.88;4913141;29;21479;-72
2024/01/21 06:39:00;;;;;;;52.43;18.30;;;;;;;-2.99;71.61;101780.56;4916223;29;20460;-72
2024/01/21 06:41:27;;;;;;;51.97;17.93;;;;;;;-2.98;71.30;101786.59;4912635;29;20467;-72
2024/01/21 06:43:57;;;;;;;51.33;19.30;;;;;;;-2.94;71.79;101783.94;4914649;29;20457;-73
2024/01/21 06:46:24;;;;;;;56.27;18.63;;;;;;;-2.86;71.67;101782.03;4912410;29;20472;-73
2024/01/21 06:48:52;;;;;;;51.83;19.40;;;;;;;-2.86;71.37;101776.84;4914053;29;20493;-73
2024/01/21 06:51:31;;;;;;;53.63;19.70;;;;;;;-2.86;71.43;101779.44;4914702;29;20460;-73
2024/01/21 06:54:00;;;;;;;47.97;16.97;;;;;;;-2.87;71.63;101779.47;4916666;29;20465;-73
2024/01/21 06:56:28;;;;;;;49.20;18.20;;;;;;;-2.80;71.48;101784.50;4912233;29;20501;-72
2024/01/21 06:58:57;;;;;;;57.43;18.53;;;;;;;-2.71;71.40;101776.53;4912992;29;20552;-73
2024/01/21 07:01:25;;;;;;;58.57;18.43;;;;;;;-2.72;71.43;101780.00;4912922;29;20470;-73
2024/01/21 07:03:53;;;;;;;51.70;17.67;;;;;;;-2.73;71.34;101773.09;4914324;29;20477;-72
2024/01/21 07:06:21;;;;;;;59.47;19.00;;;;;;;-2.71;71.44;101767.88;4914420;29;20536;-72
2024/01/21 07:08:50;;;;;;;57.90;19.57;;;;;;;-2.75;71.64;101769.69;4914081;29;20474;-73
2024/01/21 07:11:18;;;;;;;53.23;18.97;;;;;;;-2.71;71.84;101778.25;4913650;29;20497;-73
2024/01/21 07:13:46;;;;;;;61.63;20.63;;;;;;;-2.64;72.03;101781.59;4912213;29;20505;-73
2024/01/21 07:16:15;;;;;;;64.50;20.60;;;;;;;-2.70;72.20;101774.78;4911734;29;20909;-74
2024/01/21 07:18:43;;;;;;;69.23;20.50;;;;;;;-2.71;72.53;101775.66;4914121;29;20560;-73
2024/01/21 07:21:11;;;;;;;60.70;19.93;;;;;;;-2.68;72.63;101776.47;4913270;29;20476;-73
2024/01/21 07:23:39;;;;;;;64.27;20.53;;;;;;;-2.59;72.32;101782.34;4914507;29;20499;-73
2024/01/21 07:32:40;;;;;;;66.47;20.30;;;;;;;-2.61;73.19;101792.75;4952351;28;20456;-65
2024/01/21 07:35:15;;;;;;;70.40;20.73;;;;;;;-2.36;72.71;101790.47;4941354;28;20463;-65
2024/01/21 07:37:57;;;;;;;63.67;20.03;;;;;;;-2.10;71.58;101797.69;4942701;28;20490;-65
2024/01/21 07:40:50;;;;;;;62.90;21.53;;;;;;;-1.99;71.36;101809.53;4933176;28;20473;-65
2024/01/21 07:43:49;;;;;;;67.50;21.07;;;;;;;-1.95;70.89;101805.16;4941309;28;20516;-65
2024/01/21 07:46:22;;;;;;;63.67;22.63;;;;;;;-2.01;71.22;101808.72;4939474;28;20474;-65
2024/01/21 07:49:02;;;;;;;68.80;22.20;;;;;;;-2.13;71.95;101808.16;4937284;28;21181;-66
2024/01/21 07:51:31;;;;;;;67.20;22.57;;;;;;;-2.36;72.93;101798.28;4941770;28;20842;-65
2024/01/21 07:54:17;;;;;;;69.63;22.37;;;;;;;-2.50;74.07;101787.34;4924446;28;20469;-65
2024/01/21 07:56:52;;;;;;;75.57;23.17;;;;;;;-2.61;75.13;101786.72;4941190;28;21078;-65
2024/01/21 07:59:31;;;;;;;71.80;23.50;;;;;;;-2.68;75.81;101786.84;4942893;28;20447;-67
2024/01/21 08:02:32;;;;;;;78.73;23.50;;;;;;;-2.83;76.90;101788.91;4942014;28;20448;-65
2024/01/21 08:05:05;;;;;;;70.20;22.87;;;;;;;-2.82;77.75;101783.69;4931261;28;20448;-65
2024/01/21 08:10:41;;;;;;;70.17;21.53;;;;;;;-2.91;78.63;101790.81;4939441;28;20513;-64
2024/01/21 08:13:15;;;;;;;75.43;24.50;;;;;;;-2.88;78.64;101799.38;4940305;28;20561;-65
2024/01/21 08:16:03;;;;;;;;;;;;;;;;;;;;;
2024/01/21 08:18:38;;;;;;;77.90;22.77;;;;;;;-2.68;78.74;101786.00;4939118;28;20744;-65
2024/01/21 08:24:31;;;;;;;67.13;22.60;;;;;;;-2.58;78.45;101797.03;4925860;28;20554;-65
2024/01/21 08:27:19;;;;;;;83.43;24.90;;;;;;;-2.63;78.87;101799.72;4923465;29;20491;-69
2024/01/21 08:30:25;;;;;;;83.40;24.47;;;;;;;-2.58;79.27;101807.44;4902988;29;20485;-66
2024/01/21 08:33:08;;;;;;;70.13;22.67;;;;;;;-2.59;79.11;101822.16;4864067;29;20456;-67
2024/01/21 08:39:25;;;;;;;67.83;21.33;;;;;;;-2.55;79.15;101823.78;4859090;29;20928;-65
2024/01/21 08:42:19;;;;;;;67.73;22.27;;;;;;;-2.33;78.62;101829.41;4827754;29;20544;-65
2024/01/21 08:44:56;;;;;;;67.73;21.80;;;;;;;-2.27;78.18;101824.06;4862987;29;20527;-65
2024/01/21 08:51:21;;;;;;;59.77;20.73;;;;;;;-2.30;78.15;101824.16;4832810;29;20449;-66
2024/01/21 08:54:09;;;;;;;71.63;22.50;;;;;;;-2.31;78.19;101822.44;4857575;29;20554;-66
2024/01/21 08:56:51;;;;;;;65.70;22.33;;;;;;;-2.40;78.80;101809.63;4891813;29;20452;-65
2024/01/21 08:59:27;;;;;;;72.40;23.03;;;;;;;-2.41;78.83;101784.53;4924288;29;20467;-65
2024/01/21 09:01:58;;;;;;;60.77;20.90;;;;;;;-2.45;79.45;101785.47;4927618;29;20462;-67
2024/01/21 09:04:36;;;;;;;64.33;21.43;;;;;;;-2.48;79.57;101801.16;4926505;29;20470;-66
2024/01/21 09:07:08;;;;;;;66.37;20.90;;;;;;;-2.51;79.79;101804.66;4919482;29;20978;-66
2024/01/21 09:09:49;;;;;;;69.50;22.50;;;;;;;-2.55;80.24;101822.97;4920229;29;20958;-66
2024/01/21 09:12:19;;;;;;;63.13;22.23;;;;;;;-2.49;80.39;101839.28;4920730;29;20469;-66
2024/01/21 09:14:48;;;;;;;75.43;23.40;;;;;;;-2.39;80.39;101852.91;4919755;29;20969;-65
2024/01/21 09:17:18;;;;;;;64.70;22.73;;;;;;;-2.19;79.92;101848.13;4918380;29;20494;-65
2024/01/21 09:19:49;;;;;;;65.67;22.23;;;;;;;-2.07;79.04;101837.47;4920770;29;21025;-65
2024/01/21 09:23:10;;;;;;;65.83;25.30;;;;;;;-1.97;78.61;101838.97;4920898;29;20520;-65
2024/01/21 09:25:42;;;;;;;67.30;22.30;;;;;;;-2.00;78.13;101836.44;4901997;29;20481;-66
2024/01/21 09:28:19;;;;;;;69.23;22.43;;;;;;;-1.99;77.90;101835.53;4918052;29;20850;-65
2024/01/21 09:30:53;;;;;;;61.27;21.73;;;;;;;-1.98;77.51;101834.66;4919968;29;20308;-65
2024/01/21 09:33:32;;;;;;;65.43;21.13;;;;;;;-2.00;77.74;101836.44;4921162;29;20457;-64
2024/01/21 09:36:19;;;;;;;60.53;20.40;;;;;;;-1.97;77.58;101818.19;4921757;29;20464;-65
2024/01/21 09:38:56;;;;;;;68.63;23.70;;;;;;;-2.03;77.86;101810.53;4919147;29;20495;-66
2024/01/21 09:41:38;;;;;;;69.10;22.47;;;;;;;-2.06;78.06;101801.94;4917384;29;20472;-66
2024/01/21 09:44:22;;;;;;;59.40;20.70;;;;;;;-2.04;78.33;101814.00;4920867;29;20226;-65
2024/01/21 09:47:01;;;;;;;63.73;21.53;;;;;;;-2.08;78.22;101814.09;4919959;29;20461;-64
2024/01/21 09:49:57;;;;;;;64.33;21.57;;;;;;;-2.02;78.69;101825.22;4922174;29;20540;-65
2024/01/21 09:52:43;;;;;;;55.23;20.67;;;;;;;-1.80;78.00;101845.50;4909259;29;20839;-64
2024/01/21 09:55:28;;;;;;;61.03;20.30;;;;;;;-1.63;77.34;101895.38;4906969;29;20480;-65
2024/01/21 09:58:07;;;;;;;60.07;20.10;;;;;;;-1.43;77.07;101914.00;4922435;29;20486;-65
2024/01/21 10:00:54;;;;;;;56.87;20.33;;;;;;;-1.14;76.05;101942.75;4918677;29;20461;-65
2024/01/21 10:03:23;;;;;;;60.00;21.63;;;;;;;-0.91;75.36;101956.94;4921681;29;20218;-64
2024/01/21 10:05:51;;;;;;;59.87;20.80;;;;;;;-0.77;74.36;101952.22;4918911;29;20219;-65
2024/01/21 10:08:20;;;;;;;63.63;21.13;;;;;;;-0.66;74.06;101941.53;4918903;29;20283;-65
2024/01/21 10:10:49;;;;;;;66.60;21.87;;;;;;;-0.53;73.55;101951.56;4919972;29;20725;-64
2024/01/21 10:13:27;;;;;;;64.57;22.23;;;;;;;-0.43;72.97;101941.75;4918267;29;21001;-65
2024/01/21 10:16:03;;;;;;;62.73;22.43;;;;;;;-0.47;71.88;101930.56;4919762;29;20203;-65
2024/01/21 10:18:37;;;;;;;64.80;22.37;;;;;;;-0.60;72.24;101934.41;4920271;29;20642;-65
2024/01/21 10:21:08;;;;;;;65.13;23.50;;;;;;;-0.47;72.38;101943.59;4919276;29;20281;-64
2024/01/21 10:23:44;;;;;;;63.93;22.53;;;;;;;-0.40;71.80;101939.91;4921852;29;20651;-66
2024/01/21 10:26:31;;;;;;;68.17;23.47;;;;;;;-0.58;71.99;101919.59;4919719;29;20230;-66
2024/01/21 10:29:01;;;;;;;68.20;22.73;;;;;;;-0.56;72.10;101909.97;4918175;29;20224;-65
2024/01/21 10:31:57;;;;;;;68.27;24.20;;;;;;;-0.77;72.50;101895.78;4922998;29;20219;-65
2024/01/21 10:34:27;;;;;;;75.27;25.23;;;;;;;-0.80;72.79;101895.03;4921608;29;20653;-65
2024/01/21 10:37:04;;;;;;;70.23;23.60;;;;;;;-0.66;72.60;101898.09;4923456;29;20221;-65
2024/01/21 10:39:46;;;;;;;63.80;23.07;;;;;;;-0.40;72.58;101918.22;4921578;29;20561;-65
2024/01/21 10:42:18;;;;;;;58.03;22.73;;;;;;;0.10;71.32;101932.38;4922187;29;20222;-65
2024/01/21 10:44:48;;;;;;;65.03;24.17;;;;;;;1.17;69.33;101914.09;4922784;29;20220;-65
2024/01/21 10:47:26;;;;;;;71.00;24.47;;;;;;;2.10;65.30;101913.31;4922675;29;20224;-65
2024/01/21 10:49:54;;;;;;;65.37;24.57;;;;;;;2.23;63.64;101912.75;4923087;29;20208;-64
2024/01/21 10:52:26;;;;;;;61.37;23.97;;;;;;;2.62;62.17;101907.72;4920179;29;20221;-65
2024/01/21 10:55:08;;;;;;;63.57;25.47;;;;;;;3.63;58.82;101903.38;4921681;29;20687;-65
2024/01/21 10:57:42;;;;;;;64.63;25.27;;;;;;;3.30;57.55;101890.84;4920200;29;20269;-64
2024/01/21 11:00:28;;;;;;;61.60;22.87;;;;;;;2.15;59.70;101857.25;4923854;29;21207;-69
2024/01/21 11:03:39;;;;;;;56.67;22.33;;;;;;;0.95;63.28;101846.09;4922286;29;20240;-65
2024/01/21 11:06:15;;;;;;;53.03;22.37;;;;;;;0.17;66.82;101831.31;4921381;29;20578;-65
2024/01/21 11:08:54;;;;;;;56.60;22.50;;;;;;;-0.28;69.18;101821.44;4921232;29;20223;-66
2024/01/21 11:11:36;;;;;;;57.93;23.90;;;;;;;-0.63;71.41;101827.69;4920479;29;20686;-65
2024/01/21 11:14:05;;;;;;;51.37;21.40;;;;;;;-0.68;72.69;101847.78;4921387;29;20204;-64
2024/01/21 11:16:45;;;;;;;56.27;22.67;;;;;;;-0.55;72.93;101843.94;4922446;29;20298;-65
2024/01/21 11:19:25;;;;;;;53.80;20.47;;;;;;;-0.44;72.55;101815.78;4920491;29;20247;-65
2024/01/21 11:22:06;;;;;;;54.77;21.07;;;;;;;-0.52;72.86;101817.78;4925934;29;20286;-65
2024/01/21 11:24:38;;;;;;;55.20;21.30;;;;;;;-0.60;73.61;101804.13;4922810;29;20235;-65
2024/01/21 11:27:15;;;;;;;56.20;22.73;;;;;;;-0.53;73.45;101792.59;4920273;29;20212;-65
2024/01/21 11:29:50;;;;;;;54.43;20.97;;;;;;;-0.61;74.17;101786.78;4923327;29;20219;-65
2024/01/21 11:32:30;;;;;;;60.27;22.47;;;;;;;-0.65;74.79;101773.91;4922940;29;20279;-65
2024/01/21 11:35:18;;;;;;;60.27;22.13;;;;;;;-0.62;75.59;101787.69;4923239;29;20262;-66
2024/01/21 11:38:23;;;;;;;51.53;21.57;;;;;;;-0.54;75.49;101788.31;4913744;29;20211;-66
2024/01/21 11:41:03;;;;;;;53.07;20.93;;;;;;;-0.32;75.36;101787.66;4922066;29;20208;-66
2024/01/21 11:43:35;;;;;;;56.33;21.20;;;;;;;-0.22;75.13;101784.72;4920921;29;20214;-65
2024/01/21 11:46:04;;;;;;;54.83;23.07;;;;;;;-0.19;75.06;101783.78;4920308;29;20220;-66
2024/01/21 11:48:33;;;;;;;51.23;20.80;;;;;;;-0.02;74.57;101795.41;4919178;29;20428;-66
2024/01/21 11:51:07;;;;;;;55.33;22.23;;;;;;;0.23;74.18;101803.28;4920524;29;20258;-65
2024/01/21 11:53:35;;;;;;;52.47;20.70;;;;;;;0.47;73.33;101799.00;4926160;29;20231;-63